« 岐阜基地航空祭2017【飛行編】 岐阜飛行場 2017/11/19 sun | トップページ | 新潟分屯基地創設55周年記念行事2 新潟空港 2017/11/23 »

2017/11/24

新潟分屯基地創設55周年記念行事1 新潟空港 2017/11/23

昨日ならば・・・ と、恨めしい雨空ながら、はるばる新潟空港へ え、隣じゃんと思われるが、新潟県は伊達に細長い。時間的には岐阜へ行くのと変わらないのです。
RJSN 222300Z 19010KT 9999 -SHRA FEW015 SCT020 BKN040 07/07 Q1007

20171123_rjsn_00ja06rj

IBX71 RJOO-RJSN JA06RJ CRJ-702ER
公園で時間潰しの間に・・ 

20171123_rjsn_01ja74an

ANA516 RJSN-RJOO JA74AN B737-881

20171123_rjsn_02ja249j

JAL2240 RJSN-RJOO JA249J ERJ-190STD

20171123_rjsn_03ja06rj

IBX72 RJSN-RJOO JA06RJ CRJ-702ER
もう折り返して行くので、そろそろ分屯基地へ
RJSN 230000Z 20008KT 5000 -SHRA BR FEW015 SCT020 BKN035 08/07 Q1007

20171123_rjsn_04niigata_sb

立派な記念表札も雨の中・・

20171123_rjsn_05ja13np

エプロンには外来へりの列線

20171123_rjsn_06ja13np

JA13NP AW139 新潟県警察

20171123_rjsn_07ja13np

力が入った県警の縦看

20171123_rjsn_08jg43126

JG43126 UH-60JA XII
もう実戦用のスキーを履いています。

20171123_rjsn_09jg43126

こちらの表示もコンパクトながら見応え十分

20171123_rjsn_10m8454

8454 SH-60K HS-23

20171123_rjsn_11m8454

舞鶴のオスプリーさん

20171123_rjsn_12m8454

なかなか珍な配置

20171123_rjsn_13nar

さて、新潟救難隊の格納庫を覗いて見ましょう。

20171123_rjsn_14u923010

92-3010 U-125A NIIGATA-ARS

20171123_rjsn_15u923010

節目の年に派手な記念塗装機が登場する新潟です。

20171123_rjsn_16u923010

うまく朱鷺を取り入れた秀作ですな。

20171123_rjsn_17u923010

新潟救難隊は他の基地での展示に飛来することがないので、貴重です。

20171123_rjsn_18h984589

98-4589 UH-60J NIIGATA-ARS

20171123_rjsn_19h984589

60さんの派手な増槽

20171123_rjsn_20h984589

なんがーいお鼻

20171123_rjsn_21h984589

雨なので、格納庫の半分を使って展示されています。

20171123_rjsn_22ja359k

ANA1810 RJSN-RJGG JA359K B737-54K

20171123_rjsn_23bijr

晴れていれば、花電車になったであろう・・

20171123_rjsn_24bijr

格納庫の奥にブルーJrのブース

20171123_rjsn_25bijr

まだそんなに来客は無く、ゆっくりゆんたく

20171123_rjsn_26bijr

雨で展示は無理そうですねぇ・・ と、話していたのですが

20171123_rjsn_27bijr

他のお客さんは救難隊のコクピット見学に並んでいました。

20171123_rjsn_28niigatasb

新潟にもこんなアニメキャラ

20171123_rjsn_29niigatasb

救難隊の飛行展示は自粛、エプロンでのエンジンランナップに変わっています。

20171123_rjsn_30mochi

目出度い55周年なので、振る舞い餅

20171123_rjsn_31fvc

消防車と除雪車

20171123_rjsn_32tag

タグもひっそりと控えています。

20171123_rjsn_33h784584

エプロンには60さんが一機

20171123_rjsn_34h784584

これから、エンジンランナップの展示です。

20171123_rjsn_35h784584

78-4584 UH-60J NIIGATA-ARS

20171123_rjsn_36h784584

皆さん配置について

20171123_rjsn_37h784584

お客さんは、こんなもの

20171123_rjsn_38h784584

APUが廻ってチェックリストが進んでいたのですが・・ ヒューゥゥン

20171123_rjsn_39h784584

トラブルがあったらしく、APUカット。展示は中止になりました。
RJSN 230100Z 17009KT 5000 -SHRA BR FEW008 BKN015 BKN025 08/08 Q1006

20171123_rjsn_40ja463a

ANA1281 RJFF-RJSN JA463A DHC8-402Q

20171123_rjsn_41ja863a

JA863A BE30 JCG
日本海にパトロールに出発。日本海には盗人猛々しい連中が一杯。

20171123_rjsn_42h784584

おいおい大事な時に・・ すかさず点検

20171123_rjsn_43bijr

雨で中止かなと思っていたら、あれあれJrさん、やる気です。

20171123_rjsn_44bijr

水しぶきを上げて…ぶるるるる

20171123_rjsn_45bijr

いいぞ、いいぞ がんばれー

20171123_rjsn_46bijr

ライトが反射して美しい

20171123_rjsn_47bijr

一糸乱れぬデルタ隊形
RJSN 230127Z 18005KT 3000 SHRA BR FEW008 BKN015 BKN025 08/08 Q1006 RMK 2CU008 5CU015 7CU025 A2972

20171123_rjsn_48bijr

スモークも

20171123_rjsn_49bijr

まわりまーす

20171123_rjsn_50bijr

6番が見えんだ、でもイイよ

20171123_rjsn_51bijr

思いっきりバンクして、これはレター8ですね。

20171123_rjsn_52bijr_2

全機停止して、ゴソゴソ

20171123_rjsn_53bijr

でたー、デルタ・ループ

20171123_rjsn_54bijr

一気に大空へ駆け上がります

20171123_rjsn_55bijr

演目も無事終了

20171123_rjsn_56bijr

雨の中、ありがとうございました。

20171123_rjsn_57bijr

展示終了後は、自分で撤収。まさしく整備さんのお仕事。

20171123_rjsn_58bijr

今回の展開には、トーイングカーは持ってこれなかったとのこと。

20171123_rjsn_59bijr

新潟に羽ばたいたブルーインパルスジュニアにトキメキました。
その2へつづく・・・

|

« 岐阜基地航空祭2017【飛行編】 岐阜飛行場 2017/11/19 sun | トップページ | 新潟分屯基地創設55周年記念行事2 新潟空港 2017/11/23 »

BI」カテゴリの記事

新潟空港」カテゴリの記事

コメント

コメントを書く



(ウェブ上には掲載しません)


コメントは記事投稿者が公開するまで表示されません。



トラックバック


この記事へのトラックバック一覧です: 新潟分屯基地創設55周年記念行事1 新潟空港 2017/11/23:

« 岐阜基地航空祭2017【飛行編】 岐阜飛行場 2017/11/19 sun | トップページ | 新潟分屯基地創設55周年記念行事2 新潟空港 2017/11/23 »